sensor_id;sensor_type;location;lat;lon;timestamp;pressure;altitude;pressure_sealevel;temperature;humidity
65659;BME280;60181;53.258;6.932;2023-11-19T00:00:57;100681.76;;;14.83;66.80
65659;BME280;60181;53.258;6.932;2023-11-19T00:05:17;100677.39;;;14.83;68.69
65659;BME280;60181;53.258;6.932;2023-11-19T00:09:37;100673.92;;;14.83;67.19
65659;BME280;60181;53.258;6.932;2023-11-19T00:13:57;100670.64;;;14.83;67.21
65659;BME280;60181;53.258;6.932;2023-11-19T00:18:17;100666.19;;;14.84;67.37
65659;BME280;60181;53.258;6.932;2023-11-19T00:22:37;100659.17;;;14.84;67.51
65659;BME280;60181;53.258;6.932;2023-11-19T00:26:57;100652.33;;;14.84;67.68
65659;BME280;60181;53.258;6.932;2023-11-19T00:31:17;100642.76;;;14.84;67.77
65659;BME280;60181;53.258;6.932;2023-11-19T00:35:37;100636.11;;;14.85;68.02
65659;BME280;60181;53.258;6.932;2023-11-19T00:39:57;100632.30;;;14.85;68.31
65659;BME280;60181;53.258;6.932;2023-11-19T00:44:17;100627.76;;;14.86;68.27
65659;BME280;60181;53.258;6.932;2023-11-19T00:48:37;100623.33;;;14.87;68.67
65659;BME280;60181;53.258;6.932;2023-11-19T00:52:57;100619.70;;;14.88;68.92
65659;BME280;60181;53.258;6.932;2023-11-19T00:57:17;100614.69;;;14.89;68.87
65659;BME280;60181;53.258;6.932;2023-11-19T01:01:37;100607.59;;;14.90;69.30
65659;BME280;60181;53.258;6.932;2023-11-19T01:05:57;100601.25;;;14.91;69.31
65659;BME280;60181;53.258;6.932;2023-11-19T01:10:17;100595.08;;;14.92;69.38
65659;BME280;60181;53.258;6.932;2023-11-19T01:14:37;100589.54;;;14.93;69.75
65659;BME280;60181;53.258;6.932;2023-11-19T01:18:57;100582.97;;;14.94;70.09
65659;BME280;60181;53.258;6.932;2023-11-19T01:23:17;100576.05;;;14.95;70.27
65659;BME280;60181;53.258;6.932;2023-11-19T01:27:37;100571.44;;;14.96;70.36
65659;BME280;60181;53.258;6.932;2023-11-19T01:31:57;100567.57;;;14.97;70.53
65659;BME280;60181;53.258;6.932;2023-11-19T01:36:17;100566.68;;;14.98;70.63
65659;BME280;60181;53.258;6.932;2023-11-19T01:40:37;100565.59;;;14.99;70.57
65659;BME280;60181;53.258;6.932;2023-11-19T01:44:59;100566.19;;;14.99;70.74
65659;BME280;60181;53.258;6.932;2023-11-19T01:49:17;100564.54;;;15.00;70.68
65659;BME280;60181;53.258;6.932;2023-11-19T01:53:37;100561.65;;;15.01;70.83
65659;BME280;60181;53.258;6.932;2023-11-19T01:57:58;100558.45;;;15.01;70.73
65659;BME280;60181;53.258;6.932;2023-11-19T02:02:17;100556.04;;;15.02;71.37
65659;BME280;60181;53.258;6.932;2023-11-19T02:06:37;100553.42;;;15.03;70.38
65659;BME280;60181;53.258;6.932;2023-11-19T02:10:57;100549.44;;;15.03;70.62
65659;BME280;60181;53.258;6.932;2023-11-19T02:15:17;100546.33;;;15.04;70.82
65659;BME280;60181;53.258;6.932;2023-11-19T02:19:37;100542.36;;;15.04;70.67
65659;BME280;60181;53.258;6.932;2023-11-19T02:23:57;100539.34;;;15.04;70.55
65659;BME280;60181;53.258;6.932;2023-11-19T02:28:17;100537.77;;;15.05;70.69
65659;BME280;60181;53.258;6.932;2023-11-19T02:32:37;100537.67;;;15.05;70.81
65659;BME280;60181;53.258;6.932;2023-11-19T02:36:57;100538.84;;;15.06;70.79
65659;BME280;60181;53.258;6.932;2023-11-19T02:41:17;100540.41;;;15.06;70.96
65659;BME280;60181;53.258;6.932;2023-11-19T02:45:37;100541.39;;;15.06;70.91
65659;BME280;60181;53.258;6.932;2023-11-19T02:49:57;100540.91;;;15.07;71.00
65659;BME280;60181;53.258;6.932;2023-11-19T02:54:17;100540.50;;;15.07;71.13
65659;BME280;60181;53.258;6.932;2023-11-19T02:58:37;100540.65;;;15.08;71.26
65659;BME280;60181;53.258;6.932;2023-11-19T03:02:56;100539.18;;;15.08;71.38
65659;BME280;60181;53.258;6.932;2023-11-19T03:07:17;100536.45;;;15.08;71.27
65659;BME280;60181;53.258;6.932;2023-11-19T03:11:37;100531.75;;;15.09;71.38
65659;BME280;60181;53.258;6.932;2023-11-19T03:15:56;100527.29;;;15.09;71.75
65659;BME280;60181;53.258;6.932;2023-11-19T03:20:17;100524.51;;;15.09;71.75
65659;BME280;60181;53.258;6.932;2023-11-19T03:24:36;100521.12;;;15.09;72.35
65659;BME280;60181;53.258;6.932;2023-11-19T03:28:56;100517.47;;;15.10;71.97
65659;BME280;60181;53.258;6.932;2023-11-19T03:33:16;100514.36;;;15.10;72.01
65659;BME280;60181;53.258;6.932;2023-11-19T03:37:36;100513.78;;;15.11;72.20
65659;BME280;60181;53.258;6.932;2023-11-19T03:41:56;100511.63;;;15.11;72.56
65659;BME280;60181;53.258;6.932;2023-11-19T03:46:19;100508.91;;;15.11;72.21
65659;BME280;60181;53.258;6.932;2023-11-19T03:50:36;100505.46;;;15.11;72.01
65659;BME280;60181;53.258;6.932;2023-11-19T03:54:56;100502.98;;;15.11;71.92
65659;BME280;60181;53.258;6.932;2023-11-19T03:59:16;100500.92;;;15.12;71.72
65659;BME280;60181;53.258;6.932;2023-11-19T04:03:36;100497.45;;;15.12;71.94
65659;BME280;60181;53.258;6.932;2023-11-19T04:07:56;100493.98;;;15.12;72.05
65659;BME280;60181;53.258;6.932;2023-11-19T04:12:16;100491.42;;;15.12;71.90
65659;BME280;60181;53.258;6.932;2023-11-19T04:16:36;100487.30;;;15.12;71.84
65659;BME280;60181;53.258;6.932;2023-11-19T04:20:56;100483.45;;;15.12;71.66
65659;BME280;60181;53.258;6.932;2023-11-19T04:25:16;100481.80;;;15.12;71.93
65659;BME280;60181;53.258;6.932;2023-11-19T04:29:36;100479.16;;;15.12;72.00
65659;BME280;60181;53.258;6.932;2023-11-19T04:33:56;100477.84;;;15.12;71.41
65659;BME280;60181;53.258;6.932;2023-11-19T04:38:16;100478.49;;;15.13;71.50
65659;BME280;60181;53.258;6.932;2023-11-19T04:42:36;100478.14;;;15.13;71.39
65659;BME280;60181;53.258;6.932;2023-11-19T04:46:56;100479.99;;;15.14;71.13
65659;BME280;60181;53.258;6.932;2023-11-19T04:51:17;100480.72;;;15.14;71.28
65659;BME280;60181;53.258;6.932;2023-11-19T04:55:36;100481.72;;;15.15;70.95
65659;BME280;60181;53.258;6.932;2023-11-19T04:59:56;100482.45;;;15.15;71.07
65659;BME280;60181;53.258;6.932;2023-11-19T05:04:16;100482.05;;;15.15;71.60
65659;BME280;60181;53.258;6.932;2023-11-19T05:08:36;100481.55;;;15.15;71.31
65659;BME280;60181;53.258;6.932;2023-11-19T05:12:56;100482.20;;;15.15;71.09
65659;BME280;60181;53.258;6.932;2023-11-19T05:17:17;100480.81;;;15.16;71.12
65659;BME280;60181;53.258;6.932;2023-11-19T05:21:36;100481.13;;;15.16;71.38
65659;BME280;60181;53.258;6.932;2023-11-19T05:25:56;100478.66;;;15.16;71.37
65659;BME280;60181;53.258;6.932;2023-11-19T05:30:16;100479.49;;;15.16;71.43
65659;BME280;60181;53.258;6.932;2023-11-19T05:34:36;100484.03;;;15.16;71.76
65659;BME280;60181;53.258;6.932;2023-11-19T05:38:56;100487.08;;;15.16;71.19
65659;BME280;60181;53.258;6.932;2023-11-19T05:43:16;100488.97;;;15.17;71.52
65659;BME280;60181;53.258;6.932;2023-11-19T05:47:36;100491.05;;;15.17;71.25
65659;BME280;60181;53.258;6.932;2023-11-19T05:51:56;100492.13;;;15.18;71.23
65659;BME280;60181;53.258;6.932;2023-11-19T05:56:16;100493.03;;;15.18;71.02
65659;BME280;60181;53.258;6.932;2023-11-19T06:00:36;100495.42;;;15.19;70.80
65659;BME280;60181;53.258;6.932;2023-11-19T06:04:56;100499.49;;;15.19;70.61
65659;BME280;60181;53.258;6.932;2023-11-19T06:09:16;100502.36;;;15.19;70.43
65659;BME280;60181;53.258;6.932;2023-11-19T06:13:36;100503.36;;;15.19;70.26
65659;BME280;60181;53.258;6.932;2023-11-19T06:17:56;100506.25;;;15.19;70.15
65659;BME280;60181;53.258;6.932;2023-11-19T06:22:16;100509.71;;;15.19;70.07
65659;BME280;60181;53.258;6.932;2023-11-19T06:26:36;100511.53;;;15.19;69.87
65659;BME280;60181;53.258;6.932;2023-11-19T06:30:56;100512.91;;;15.19;69.80
65659;BME280;60181;53.258;6.932;2023-11-19T06:35:16;100516.53;;;15.19;69.70
65659;BME280;60181;53.258;6.932;2023-11-19T06:39:36;100519.34;;;15.19;69.55
65659;BME280;60181;53.258;6.932;2023-11-19T06:43:56;100522.41;;;15.19;69.52
65659;BME280;60181;53.258;6.932;2023-11-19T06:48:16;100524.24;;;15.19;69.51
65659;BME280;60181;53.258;6.932;2023-11-19T06:52:36;100525.78;;;15.19;69.47
65659;BME280;60181;53.258;6.932;2023-11-19T06:56:56;100527.84;;;15.18;69.38
65659;BME280;60181;53.258;6.932;2023-11-19T07:01:16;100530.98;;;15.18;69.31
65659;BME280;60181;53.258;6.932;2023-11-19T07:05:36;100532.54;;;15.19;69.21
65659;BME280;60181;53.258;6.932;2023-11-19T07:09:56;100533.62;;;15.18;69.56
65659;BME280;60181;53.258;6.932;2023-11-19T07:14:16;100533.87;;;15.18;69.44
65659;BME280;60181;53.258;6.932;2023-11-19T07:18:36;100534.29;;;15.18;69.18
65659;BME280;60181;53.258;6.932;2023-11-19T07:22:56;100536.44;;;15.18;69.23
65659;BME280;60181;53.258;6.932;2023-11-19T07:27:16;100537.59;;;15.18;69.14
65659;BME280;60181;53.258;6.932;2023-11-19T07:31:36;100538.32;;;15.17;69.21
65659;BME280;60181;53.258;6.932;2023-11-19T07:35:56;100540.55;;;15.17;69.12
65659;BME280;60181;53.258;6.932;2023-11-19T07:40:16;100543.58;;;15.17;69.12
65659;BME280;60181;53.258;6.932;2023-11-19T07:44:36;100546.39;;;15.16;69.15
65659;BME280;60181;53.258;6.932;2023-11-19T08:10:56;100563.40;;;15.17;69.06
65659;BME280;60181;53.258;6.932;2023-11-19T08:15:15;100566.03;;;15.18;69.05
65659;BME280;60181;53.258;6.932;2023-11-19T08:19:35;100568.67;;;15.19;68.96
65659;BME280;60181;53.258;6.932;2023-11-19T08:23:55;100571.17;;;15.19;68.80
65659;BME280;60181;53.258;6.932;2023-11-19T08:28:15;100574.73;;;15.20;68.66
65659;BME280;60181;53.258;6.932;2023-11-19T08:32:35;100578.83;;;15.21;68.55
65659;BME280;60181;53.258;6.932;2023-11-19T08:36:55;100581.57;;;15.22;68.71
65659;BME280;60181;53.258;6.932;2023-11-19T08:41:16;100585.11;;;15.22;68.77
65659;BME280;60181;53.258;6.932;2023-11-19T08:45:35;100588.59;;;15.23;68.68
65659;BME280;60181;53.258;6.932;2023-11-19T08:49:55;100589.58;;;15.23;68.53
65659;BME280;60181;53.258;6.932;2023-11-19T08:54:15;100592.32;;;15.23;68.52
65659;BME280;60181;53.258;6.932;2023-11-19T08:58:35;100594.94;;;15.24;68.51
65659;BME280;60181;53.258;6.932;2023-11-19T09:02:55;100598.10;;;15.25;68.44
65659;BME280;60181;53.258;6.932;2023-11-19T09:07:15;100602.04;;;15.25;68.44
65659;BME280;60181;53.258;6.932;2023-11-19T09:11:35;100604.96;;;15.26;68.39
65659;BME280;60181;53.258;6.932;2023-11-19T09:15:55;100607.75;;;15.26;68.74
65659;BME280;60181;53.258;6.932;2023-11-19T09:20:15;100610.07;;;15.27;68.56
65659;BME280;60181;53.258;6.932;2023-11-19T09:24:35;100609.99;;;15.28;68.39
65659;BME280;60181;53.258;6.932;2023-11-19T09:28:55;100610.60;;;15.31;70.72
65659;BME280;60181;53.258;6.932;2023-11-19T09:33:15;100610.77;;;15.35;70.93
65659;BME280;60181;53.258;6.932;2023-11-19T09:37:35;100612.53;;;15.42;71.01
65659;BME280;60181;53.258;6.932;2023-11-19T09:41:55;100613.56;;;15.45;70.66
65659;BME280;60181;53.258;6.932;2023-11-19T09:46:15;100613.53;;;15.46;70.73
65659;BME280;60181;53.258;6.932;2023-11-19T09:50:35;100614.54;;;15.48;70.66
65659;BME280;60181;53.258;6.932;2023-11-19T09:54:55;100614.58;;;15.51;70.36
65659;BME280;60181;53.258;6.932;2023-11-19T09:59:15;100615.08;;;15.56;70.15
65659;BME280;60181;53.258;6.932;2023-11-19T10:03:35;100614.37;;;15.62;70.06
65659;BME280;60181;53.258;6.932;2023-11-19T10:07:55;100613.97;;;15.68;69.94
65659;BME280;60181;53.258;6.932;2023-11-19T10:12:15;100612.84;;;15.73;69.96
65659;BME280;60181;53.258;6.932;2023-11-19T10:16:35;100610.38;;;15.78;69.91
65659;BME280;60181;53.258;6.932;2023-11-19T10:20:55;100608.26;;;15.82;69.90
65659;BME280;60181;53.258;6.932;2023-11-19T10:25:25;100605.98;;;15.85;69.84
65659;BME280;60181;53.258;6.932;2023-11-19T10:29:38;100604.61;;;15.89;69.77
65659;BME280;60181;53.258;6.932;2023-11-19T10:33:55;100602.95;;;15.93;69.72
65659;BME280;60181;53.258;6.932;2023-11-19T10:38:15;100601.47;;;15.96;69.58
65659;BME280;60181;53.258;6.932;2023-11-19T10:42:35;100600.92;;;16.00;69.55
65659;BME280;60181;53.258;6.932;2023-11-19T10:46:55;100600.02;;;16.04;69.56
65659;BME280;60181;53.258;6.932;2023-11-19T10:51:18;100600.44;;;16.07;69.51
65659;BME280;60181;53.258;6.932;2023-11-19T10:55:36;100600.09;;;16.10;69.39
65659;BME280;60181;53.258;6.932;2023-11-19T10:59:55;100600.84;;;16.14;69.28
65659;BME280;60181;53.258;6.932;2023-11-19T11:04:15;100601.51;;;16.18;69.22
65659;BME280;60181;53.258;6.932;2023-11-19T11:08:36;100600.71;;;16.22;69.19
65659;BME280;60181;53.258;6.932;2023-11-19T11:12:55;100600.13;;;16.25;69.36
65659;BME280;60181;53.258;6.932;2023-11-19T11:17:17;100598.91;;;16.26;69.30
65659;BME280;60181;53.258;6.932;2023-11-19T11:21:35;100597.90;;;16.25;69.36
65659;BME280;60181;53.258;6.932;2023-11-19T11:38:55;100593.68;;;16.18;69.14
65659;BME280;60181;53.258;6.932;2023-11-19T11:51:58;100588.28;;;16.11;69.32
65659;BME280;60181;53.258;6.932;2023-11-19T11:56:15;100587.70;;;16.09;69.32
65659;BME280;60181;53.258;6.932;2023-11-19T12:00:39;100587.20;;;16.07;69.33
65659;BME280;60181;53.258;6.932;2023-11-19T12:04:55;100586.80;;;16.05;69.14
65659;BME280;60181;53.258;6.932;2023-11-19T12:09:15;100585.38;;;16.04;69.12
65659;BME280;60181;53.258;6.932;2023-11-19T12:17:55;100582.83;;;16.03;69.94
65659;BME280;60181;53.258;6.932;2023-11-19T12:22:15;100580.92;;;16.03;69.82
65659;BME280;60181;53.258;6.932;2023-11-19T12:26:36;100580.19;;;16.03;69.94
65659;BME280;60181;53.258;6.932;2023-11-19T12:31:06;100580.92;;;16.02;69.70
65659;BME280;60181;53.258;6.932;2023-11-19T12:35:15;100581.81;;;16.01;69.71
65659;BME280;60181;53.258;6.932;2023-11-19T12:39:35;100581.75;;;16.00;69.72
65659;BME280;60181;53.258;6.932;2023-11-19T12:44:08;100582.00;;;16.01;69.34
65659;BME280;60181;53.258;6.932;2023-11-19T12:48:15;100582.40;;;16.02;69.21
65659;BME280;60181;53.258;6.932;2023-11-19T12:52:35;100583.48;;;16.03;69.09
65659;BME280;60181;53.258;6.932;2023-11-19T12:56:55;100581.02;;;16.05;68.92
65659;BME280;60181;53.258;6.932;2023-11-19T13:01:18;100577.72;;;16.06;68.99
65659;BME280;60181;53.258;6.932;2023-11-19T13:05:35;100575.14;;;16.07;69.07
65659;BME280;60181;53.258;6.932;2023-11-19T13:10:01;100571.84;;;16.06;69.10
65659;BME280;60181;53.258;6.932;2023-11-19T13:14:15;100569.02;;;16.06;69.11
65659;BME280;60181;53.258;6.932;2023-11-19T13:18:35;100565.66;;;16.05;69.11
65659;BME280;60181;53.258;6.932;2023-11-19T13:23:01;100564.48;;;16.04;69.12
65659;BME280;60181;53.258;6.932;2023-11-19T13:27:15;100564.15;;;16.03;69.11
65659;BME280;60181;53.258;6.932;2023-11-19T13:31:35;100565.22;;;16.02;69.13
65659;BME280;60181;53.258;6.932;2023-11-19T13:35:55;100566.47;;;16.01;69.23
65659;BME280;60181;53.258;6.932;2023-11-19T13:40:15;100567.27;;;15.99;69.39
65659;BME280;60181;53.258;6.932;2023-11-19T13:44:35;100568.67;;;15.98;69.23
65659;BME280;60181;53.258;6.932;2023-11-19T13:48:55;100568.77;;;15.96;69.33
65659;BME280;60181;53.258;6.932;2023-11-19T13:53:15;100569.92;;;15.95;69.32
65659;BME280;60181;53.258;6.932;2023-11-19T13:57:35;100570.40;;;15.94;69.24
65659;BME280;60181;53.258;6.932;2023-11-19T14:01:55;100570.51;;;15.94;69.28
65659;BME280;60181;53.258;6.932;2023-11-19T14:06:15;100570.17;;;15.93;69.25
65659;BME280;60181;53.258;6.932;2023-11-19T14:10:35;100571.23;;;15.92;69.28
65659;BME280;60181;53.258;6.932;2023-11-19T14:14:55;100571.31;;;15.91;69.28
65659;BME280;60181;53.258;6.932;2023-11-19T14:19:15;100570.97;;;15.90;69.26
65659;BME280;60181;53.258;6.932;2023-11-19T14:23:35;100570.98;;;15.90;69.24
65659;BME280;60181;53.258;6.932;2023-11-19T14:27:55;100571.72;;;15.89;69.20
65659;BME280;60181;53.258;6.932;2023-11-19T14:32:15;100572.53;;;15.88;69.27
65659;BME280;60181;53.258;6.932;2023-11-19T14:36:35;100573.46;;;15.87;69.21
65659;BME280;60181;53.258;6.932;2023-11-19T14:40:55;100574.36;;;15.86;69.21
65659;BME280;60181;53.258;6.932;2023-11-19T14:45:15;100574.84;;;15.86;69.18
65659;BME280;60181;53.258;6.932;2023-11-19T14:49:35;100574.85;;;15.85;69.15
65659;BME280;60181;53.258;6.932;2023-11-19T14:53:55;100574.56;;;15.84;69.17
65659;BME280;60181;53.258;6.932;2023-11-19T14:58:15;100576.22;;;15.84;69.25
65659;BME280;60181;53.258;6.932;2023-11-19T15:02:35;100578.44;;;15.83;69.20
65659;BME280;60181;53.258;6.932;2023-11-19T15:06:57;100577.19;;;15.82;69.13
65659;BME280;60181;53.258;6.932;2023-11-19T15:11:15;100576.22;;;15.82;69.20
65659;BME280;60181;53.258;6.932;2023-11-19T15:15:35;100575.53;;;15.81;69.14
65659;BME280;60181;53.258;6.932;2023-11-19T15:19:55;100575.87;;;15.81;69.15
65659;BME280;60181;53.258;6.932;2023-11-19T15:24:15;100576.78;;;15.80;69.18
65659;BME280;60181;53.258;6.932;2023-11-19T15:28:35;100578.11;;;15.79;69.10
65659;BME280;60181;53.258;6.932;2023-11-19T15:32:55;100579.33;;;15.79;69.12
65659;BME280;60181;53.258;6.932;2023-11-19T15:37:15;100578.58;;;15.78;69.12
65659;BME280;60181;53.258;6.932;2023-11-19T15:41:35;100577.27;;;15.77;69.15
65659;BME280;60181;53.258;6.932;2023-11-19T15:45:55;100577.36;;;15.77;69.06
65659;BME280;60181;53.258;6.932;2023-11-19T15:50:15;100576.28;;;15.76;69.11
65659;BME280;60181;53.258;6.932;2023-11-19T15:54:35;100574.64;;;15.76;69.04
65659;BME280;60181;53.258;6.932;2023-11-19T15:58:55;100575.03;;;15.76;69.00
65659;BME280;60181;53.258;6.932;2023-11-19T16:03:15;100575.04;;;15.75;68.99
65659;BME280;60181;53.258;6.932;2023-11-19T16:07:35;100575.45;;;15.75;68.96
65659;BME280;60181;53.258;6.932;2023-11-19T16:11:55;100575.68;;;15.74;68.93
65659;BME280;60181;53.258;6.932;2023-11-19T16:16:15;100577.09;;;15.74;68.94
65659;BME280;60181;53.258;6.932;2023-11-19T16:20:35;100578.00;;;15.74;68.86
65659;BME280;60181;53.258;6.932;2023-11-19T16:24:55;100577.69;;;15.73;68.86
65659;BME280;60181;53.258;6.932;2023-11-19T16:29:15;100580.55;;;15.73;68.87
65659;BME280;60181;53.258;6.932;2023-11-19T16:33:35;100583.78;;;15.73;68.87
65659;BME280;60181;53.258;6.932;2023-11-19T16:37:55;100586.18;;;15.73;68.83
65659;BME280;60181;53.258;6.932;2023-11-19T16:42:15;100588.58;;;15.72;68.83
65659;BME280;60181;53.258;6.932;2023-11-19T16:46:35;100591.28;;;15.72;68.87
65659;BME280;60181;53.258;6.932;2023-11-19T16:50:55;100592.46;;;15.72;68.82
65659;BME280;60181;53.258;6.932;2023-11-19T16:55:15;100593.86;;;15.71;68.85
65659;BME280;60181;53.258;6.932;2023-11-19T16:59:35;100595.40;;;15.71;68.79
65659;BME280;60181;53.258;6.932;2023-11-19T17:03:55;100595.75;;;15.71;68.74
65659;BME280;60181;53.258;6.932;2023-11-19T17:08:15;100596.33;;;15.70;68.77
65659;BME280;60181;53.258;6.932;2023-11-19T17:12:35;100597.38;;;15.70;68.73
65659;BME280;60181;53.258;6.932;2023-11-19T17:16:55;100598.30;;;15.70;68.77
65659;BME280;60181;53.258;6.932;2023-11-19T17:21:15;100599.21;;;15.70;68.75
65659;BME280;60181;53.258;6.932;2023-11-19T17:25:35;100598.97;;;15.69;68.74
65659;BME280;60181;53.258;6.932;2023-11-19T17:29:55;100599.72;;;15.69;68.79
65659;BME280;60181;53.258;6.932;2023-11-19T17:34:15;100599.94;;;15.69;68.94
65659;BME280;60181;53.258;6.932;2023-11-19T17:38:35;100600.69;;;15.69;68.78
65659;BME280;60181;53.258;6.932;2023-11-19T17:42:55;100601.84;;;15.69;68.71
65659;BME280;60181;53.258;6.932;2023-11-19T17:47:15;100602.26;;;15.68;68.70
65659;BME280;60181;53.258;6.932;2023-11-19T17:51:34;100602.26;;;15.68;68.67
65659;BME280;60181;53.258;6.932;2023-11-19T17:55:54;100602.59;;;15.68;68.71
65659;BME280;60181;53.258;6.932;2023-11-19T18:00:15;100602.09;;;15.68;68.67
65659;BME280;60181;53.258;6.932;2023-11-19T18:04:35;100601.68;;;15.69;68.66
65659;BME280;60181;53.258;6.932;2023-11-19T18:08:55;100600.20;;;15.69;68.59
65659;BME280;60181;53.258;6.932;2023-11-19T18:13:15;100598.78;;;15.69;68.62
65659;BME280;60181;53.258;6.932;2023-11-19T18:17:34;100597.41;;;15.69;68.66
65659;BME280;60181;53.258;6.932;2023-11-19T18:21:54;100595.83;;;15.69;68.59
65659;BME280;60181;53.258;6.932;2023-11-19T18:26:14;100593.27;;;15.70;68.66
65659;BME280;60181;53.258;6.932;2023-11-19T18:30:34;100590.20;;;15.70;68.55
65659;BME280;60181;53.258;6.932;2023-11-19T18:34:54;100586.49;;;15.70;68.62
65659;BME280;60181;53.258;6.932;2023-11-19T18:39:14;100583.86;;;15.71;68.52
65659;BME280;60181;53.258;6.932;2023-11-19T18:43:34;100577.75;;;15.71;68.55
65659;BME280;60181;53.258;6.932;2023-11-19T18:47:54;100574.27;;;15.71;68.63
65659;BME280;60181;53.258;6.932;2023-11-19T18:52:14;100571.23;;;15.71;68.66
65659;BME280;60181;53.258;6.932;2023-11-19T18:56:34;100568.08;;;15.72;68.55
65659;BME280;60181;53.258;6.932;2023-11-19T19:00:54;100564.78;;;15.72;68.59
65659;BME280;60181;53.258;6.932;2023-11-19T19:05:14;100561.06;;;15.72;68.66
65659;BME280;60181;53.258;6.932;2023-11-19T19:09:34;100557.70;;;15.72;68.61
65659;BME280;60181;53.258;6.932;2023-11-19T19:13:54;100555.55;;;15.72;68.68
65659;BME280;60181;53.258;6.932;2023-11-19T19:18:14;100553.81;;;15.73;68.71
65659;BME280;60181;53.258;6.932;2023-11-19T19:22:34;100550.84;;;15.73;69.07
65659;BME280;60181;53.258;6.932;2023-11-19T19:26:54;100547.38;;;15.73;68.92
65659;BME280;60181;53.258;6.932;2023-11-19T19:31:14;100542.58;;;15.73;68.84
65659;BME280;60181;53.258;6.932;2023-11-19T19:35:34;100538.36;;;15.73;68.82
65659;BME280;60181;53.258;6.932;2023-11-19T19:39:54;100533.17;;;15.73;68.73
65659;BME280;60181;53.258;6.932;2023-11-19T19:44:14;100529.05;;;15.73;68.70
65659;BME280;60181;53.258;6.932;2023-11-19T19:48:35;100524.66;;;15.73;68.72
65659;BME280;60181;53.258;6.932;2023-11-19T19:52:54;100521.02;;;15.73;68.72
65659;BME280;60181;53.258;6.932;2023-11-19T19:57:14;100517.07;;;15.73;68.71
65659;BME280;60181;53.258;6.932;2023-11-19T20:01:34;100512.84;;;15.73;68.70
65659;BME280;60181;53.258;6.932;2023-11-19T20:05:57;100508.06;;;15.73;68.75
65659;BME280;60181;53.258;6.932;2023-11-19T20:10:14;100504.26;;;15.73;68.69
65659;BME280;60181;53.258;6.932;2023-11-19T20:14:35;100503.87;;;15.73;68.70
65659;BME280;60181;53.258;6.932;2023-11-19T20:18:54;100501.89;;;15.73;68.75
65659;BME280;60181;53.258;6.932;2023-11-19T20:23:15;100500.56;;;15.73;68.70
65659;BME280;60181;53.258;6.932;2023-11-19T20:27:34;100500.97;;;15.74;68.77
65659;BME280;60181;53.258;6.932;2023-11-19T20:31:54;100498.50;;;15.74;68.75
65659;BME280;60181;53.258;6.932;2023-11-19T20:36:14;100494.20;;;15.74;68.70
65659;BME280;60181;53.258;6.932;2023-11-19T20:40:34;100489.40;;;15.74;68.69
65659;BME280;60181;53.258;6.932;2023-11-19T20:44:54;100486.27;;;15.74;68.69
65659;BME280;60181;53.258;6.932;2023-11-19T20:49:14;100484.61;;;15.74;68.66
65659;BME280;60181;53.258;6.932;2023-11-19T20:53:34;100484.30;;;15.75;68.68
65659;BME280;60181;53.258;6.932;2023-11-19T20:57:54;100484.28;;;15.75;68.63
65659;BME280;60181;53.258;6.932;2023-11-19T21:02:14;100483.37;;;15.76;68.61
65659;BME280;60181;53.258;6.932;2023-11-19T21:06:34;100480.89;;;15.76;68.66
65659;BME280;60181;53.258;6.932;2023-11-19T21:10:54;100479.26;;;15.76;68.62
65659;BME280;60181;53.258;6.932;2023-11-19T21:15:14;100477.09;;;15.77;68.77
65659;BME280;60181;53.258;6.932;2023-11-19T21:19:34;100474.78;;;15.77;68.69
65659;BME280;60181;53.258;6.932;2023-11-19T21:23:54;100472.08;;;15.77;68.69
65659;BME280;60181;53.258;6.932;2023-11-19T21:28:14;100470.34;;;15.77;68.66
65659;BME280;60181;53.258;6.932;2023-11-19T21:32:34;100469.75;;;15.77;68.71
65659;BME280;60181;53.258;6.932;2023-11-19T21:36:54;100468.59;;;15.78;69.36
65659;BME280;60181;53.258;6.932;2023-11-19T21:41:14;100468.44;;;15.78;69.14
65659;BME280;60181;53.258;6.932;2023-11-19T21:45:34;100467.54;;;15.78;69.05
65659;BME280;60181;53.258;6.932;2023-11-19T21:49:54;100466.88;;;15.78;69.16
65659;BME280;60181;53.258;6.932;2023-11-19T21:54:14;100463.98;;;15.77;69.46
65659;BME280;60181;53.258;6.932;2023-11-19T21:58:34;100460.92;;;15.77;69.24
65659;BME280;60181;53.258;6.932;2023-11-19T22:02:54;100457.70;;;15.76;69.29
65659;BME280;60181;53.258;6.932;2023-11-19T22:07:14;100456.72;;;15.76;69.28
65659;BME280;60181;53.258;6.932;2023-11-19T22:11:34;100455.05;;;15.75;69.39
65659;BME280;60181;53.258;6.932;2023-11-19T22:15:54;100455.64;;;15.75;69.39
65659;BME280;60181;53.258;6.932;2023-11-19T22:20:14;100455.97;;;15.75;69.38
65659;BME280;60181;53.258;6.932;2023-11-19T22:24:34;100455.29;;;15.74;69.45
65659;BME280;60181;53.258;6.932;2023-11-19T22:28:54;100457.78;;;15.74;69.57
65659;BME280;60181;53.258;6.932;2023-11-19T22:33:14;100459.52;;;15.74;69.52
65659;BME280;60181;53.258;6.932;2023-11-19T22:37:34;100461.01;;;15.74;69.57
65659;BME280;60181;53.258;6.932;2023-11-19T22:41:54;100461.27;;;15.73;69.38
65659;BME280;60181;53.258;6.932;2023-11-19T22:46:14;100461.60;;;15.73;69.54
65659;BME280;60181;53.258;6.932;2023-11-19T22:50:34;100463.64;;;15.73;69.62
65659;BME280;60181;53.258;6.932;2023-11-19T22:54:54;100466.36;;;15.73;69.70
65659;BME280;60181;53.258;6.932;2023-11-19T22:59:14;100468.77;;;15.73;69.62
65659;BME280;60181;53.258;6.932;2023-11-19T23:03:34;100471.00;;;15.72;69.68
65659;BME280;60181;53.258;6.932;2023-11-19T23:07:54;100472.55;;;15.72;69.61
65659;BME280;60181;53.258;6.932;2023-11-19T23:12:14;100474.95;;;15.72;69.59
65659;BME280;60181;53.258;6.932;2023-11-19T23:16:37;100477.26;;;15.72;69.53
65659;BME280;60181;53.258;6.932;2023-11-19T23:20:54;100480.39;;;15.72;69.34
65659;BME280;60181;53.258;6.932;2023-11-19T23:25:14;100482.87;;;15.72;69.45